Time;durP1;ratioP1;P1;durP2;ratioP2;P2;SDS_P1;SDS_P2;PMS_P1;PMS_P2;Temp;Humidity;BMP_temperature;BMP_pressure;BME280_temperature;BME280_humidity;BME280_pressure;Samples;Min_cycle;Max_cycle;Signal;HPM_P1;HPM_P2
2023/05/08 00:01:11;;;;;;;1.42;1.38;;;;;;;;;;4205113;28;20043;-58
2023/05/08 00:03:31;;;;;;;1.95;1.85;;;;;;;;;;4205166;28;20067;-58
2023/05/08 00:05:51;;;;;;;1.77;1.70;;;;;;;;;;4205137;28;20048;-58
2023/05/08 00:08:11;;;;;;;1.30;1.30;;;;;;;;;;4204264;28;20090;-58
2023/05/08 00:10:32;;;;;;;1.23;1.23;;;;;;;;;;4204335;28;20247;-58
2023/05/08 00:12:52;;;;;;;1.60;1.50;;;;;;;;;;4204007;28;20443;-58
2023/05/08 00:15:12;;;;;;;1.60;1.60;;;;;;;;;;4204976;28;20412;-58
2023/05/08 00:17:32;;;;;;;1.25;1.25;;;;;;;;;;4204870;28;20127;-58
2023/05/08 00:19:53;;;;;;;1.85;1.85;;;;;;;;;;4203652;28;20051;-58
2023/05/08 00:22:13;;;;;;;1.50;1.50;;;;;;;;;;4203646;28;20043;-58
2023/05/08 00:24:33;;;;;;;1.73;1.20;;;;;;;;;;4204381;28;20052;-57
2023/05/08 00:26:54;;;;;;;1.58;1.50;;;;;;;;;;4204979;28;20108;-58
2023/05/08 00:29:14;;;;;;;1.48;1.42;;;;;;;;;;4203345;28;20047;-57
2023/05/08 00:31:34;;;;;;;1.88;1.83;;;;;;;;;;4205011;28;20101;-57
2023/05/08 00:33:55;;;;;;;2.33;2.22;;;;;;;;;;4204973;28;20217;-58
2023/05/08 00:36:15;;;;;;;1.63;1.63;;;;;;;;;;4203846;28;20263;-57
2023/05/08 00:38:36;;;;;;;1.83;1.83;;;;;;;;;;4204898;28;20048;-57
2023/05/08 00:40:57;;;;;;;1.80;1.70;;;;;;;;;;4204806;28;20390;-58
2023/05/08 00:43:18;;;;;;;1.73;1.65;;;;;;;;;;4204361;28;20067;-57
2023/05/08 00:45:39;;;;;;;2.38;1.75;;;;;;;;;;4204485;28;20047;-58
2023/05/08 00:48:00;;;;;;;1.77;1.67;;;;;;;;;;4205220;28;20051;-58
2023/05/08 00:50:20;;;;;;;1.48;1.48;;;;;;;;;;4207634;28;20086;-58
2023/05/08 00:52:41;;;;;;;1.38;1.38;;;;;;;;;;4207106;28;20055;-57
2023/05/08 00:55:01;;;;;;;1.42;1.42;;;;;;;;;;4206880;28;20047;-57
2023/05/08 00:57:22;;;;;;;1.50;1.50;;;;;;;;;;4206771;28;20149;-58
2023/05/08 00:59:44;;;;;;;1.80;1.80;;;;;;;;;;4207505;28;20067;-58
2023/05/08 01:02:04;;;;;;;2.05;1.95;;;;;;;;;;4207132;28;20074;-58
2023/05/08 01:04:26;;;;;;;1.50;1.50;;;;;;;;;;4206606;28;20108;-58
2023/05/08 01:06:46;;;;;;;2.58;1.58;;;;;;;;;;4206636;28;20047;-57
2023/05/08 01:09:07;;;;;;;1.95;1.95;;;;;;;;;;4207367;28;20198;-58
2023/05/08 01:11:37;;;;;;;1.73;1.73;;;;;;;;;;4206145;28;20351;-58
2023/05/08 01:14:16;;;;;;;2.08;2.08;;;;;;;;;;4207370;28;20138;-58
2023/05/08 01:16:48;;;;;;;1.95;1.85;;;;;;;;;;4207171;28;20059;-58
2023/05/08 01:19:17;;;;;;;2.25;2.15;;;;;;;;;;4207217;28;20086;-58
2023/05/08 01:21:41;;;;;;;3.17;1.67;;;;;;;;;;4204636;28;20047;-58
2023/05/08 01:24:21;;;;;;;1.67;1.67;;;;;;;;;;4207201;28;20390;-58
2023/05/08 01:26:58;;;;;;;1.30;1.30;;;;;;;;;;4207219;28;20239;-58
2023/05/08 01:29:37;;;;;;;2.78;1.33;;;;;;;;;;4190091;28;20051;-58
2023/05/08 01:32:00;;;;;;;2.30;2.10;;;;;;;;;;4205780;28;20099;-58
2023/05/08 01:34:24;;;;;;;1.25;1.25;;;;;;;;;;4207174;28;20382;-58
2023/05/08 01:36:44;;;;;;;2.33;2.20;;;;;;;;;;4206093;28;20059;-57
2023/05/08 01:39:12;;;;;;;1.80;1.75;;;;;;;;;;4207205;28;20051;-58
2023/05/08 01:41:34;;;;;;;1.63;1.63;;;;;;;;;;4206283;28;20043;-58
2023/05/08 01:44:12;;;;;;;1.48;1.38;;;;;;;;;;4206896;28;20078;-57
2023/05/08 01:46:33;;;;;;;1.40;1.40;;;;;;;;;;4206493;28;20419;-58
2023/05/08 01:48:59;;;;;;;1.35;1.35;;;;;;;;;;4207065;28;20085;-58
2023/05/08 01:51:22;;;;;;;1.58;1.58;;;;;;;;;;4207123;28;20047;-58
2023/05/08 01:53:44;;;;;;;1.30;1.30;;;;;;;;;;4206602;28;20082;-57
2023/05/08 01:56:07;;;;;;;2.15;1.40;;;;;;;;;;4206661;28;20046;-58
2023/05/08 01:58:28;;;;;;;2.38;1.45;;;;;;;;;;4206941;28;20055;-57
2023/05/08 02:00:49;;;;;;;1.42;1.35;;;;;;;;;;4206187;28;20047;-58
2023/05/08 02:03:10;;;;;;;1.90;1.80;;;;;;;;;;4206630;28;20137;-58
2023/05/08 02:05:31;;;;;;;1.30;1.30;;;;;;;;;;4206331;28;20051;-57
2023/05/08 02:07:51;;;;;;;1.50;1.50;;;;;;;;;;4206078;28;20051;-58
2023/05/08 02:10:12;;;;;;;1.55;1.55;;;;;;;;;;4206703;28;20052;-59
2023/05/08 02:12:34;;;;;;;1.38;1.38;;;;;;;;;;4206700;28;20044;-58
2023/05/08 02:14:55;;;;;;;1.25;1.25;;;;;;;;;;4206087;28;20306;-58
2023/05/08 02:17:16;;;;;;;1.48;1.48;;;;;;;;;;4204290;28;20247;-58
2023/05/08 02:19:39;;;;;;;1.40;1.40;;;;;;;;;;4206613;28;20330;-58
2023/05/08 02:22:00;;;;;;;1.33;1.33;;;;;;;;;;4206543;28;20367;-57
2023/05/08 02:24:21;;;;;;;1.10;1.10;;;;;;;;;;4206244;28;20067;-58
2023/05/08 02:26:42;;;;;;;1.60;1.50;;;;;;;;;;4205439;28;20108;-57
2023/05/08 02:29:03;;;;;;;1.70;1.58;;;;;;;;;;4206147;28;20104;-58
2023/05/08 02:31:24;;;;;;;1.40;1.40;;;;;;;;;;4206180;28;20104;-59
2023/05/08 02:33:45;;;;;;;1.25;1.25;;;;;;;;;;4206167;28;20044;-57
2023/05/08 02:36:05;;;;;;;1.95;1.85;;;;;;;;;;4206214;28;20047;-57
2023/05/08 02:38:26;;;;;;;1.95;1.77;;;;;;;;;;4204889;28;20078;-58
2023/05/08 02:40:52;;;;;;;1.38;1.38;;;;;;;;;;4205648;28;20086;-58
2023/05/08 02:43:13;;;;;;;4.80;1.30;;;;;;;;;;4205339;28;20044;-58
2023/05/08 02:45:38;;;;;;;3.33;1.55;;;;;;;;;;4205861;28;20276;-57
2023/05/08 02:48:17;;;;;;;1.40;1.40;;;;;;;;;;4205172;28;20101;-58
2023/05/08 02:50:43;;;;;;;1.23;1.23;;;;;;;;;;4206071;28;20094;-57
2023/05/08 02:53:04;;;;;;;7.88;1.75;;;;;;;;;;4206174;28;20086;-59
2023/05/08 02:55:28;;;;;;;1.50;1.50;;;;;;;;;;4205193;28;20052;-57
2023/05/08 02:57:51;;;;;;;1.60;1.50;;;;;;;;;;4204746;28;20039;-58
2023/05/08 03:00:12;;;;;;;2.10;2.00;;;;;;;;;;4203990;28;20119;-58
2023/05/08 03:02:40;;;;;;;2.25;1.80;;;;;;;;;;4205695;28;20056;-57
2023/05/08 03:05:27;;;;;;;2.10;2.03;;;;;;;;;;4205414;28;20064;-58
2023/05/08 03:07:56;;;;;;;1.40;1.40;;;;;;;;;;4205193;28;20225;-58
2023/05/08 03:10:18;;;;;;;1.48;1.48;;;;;;;;;;4205785;28;20048;-58
2023/05/08 03:12:40;;;;;;;1.60;1.50;;;;;;;;;;4203299;28;20086;-58
2023/05/08 03:15:05;;;;;;;1.60;1.60;;;;;;;;;;4205811;28;20047;-58
2023/05/08 03:17:28;;;;;;;1.70;1.70;;;;;;;;;;4204097;28;20056;-58
2023/05/08 03:19:51;;;;;;;2.30;2.10;;;;;;;;;;4205784;28;20070;-58
2023/05/08 03:22:13;;;;;;;1.98;1.90;;;;;;;;;;4205270;28;20047;-57
2023/05/08 03:24:38;;;;;;;1.73;1.73;;;;;;;;;;4205463;28;20052;-57
2023/05/08 03:26:58;;;;;;;1.73;1.70;;;;;;;;;;4204804;28;20097;-58
2023/05/08 03:29:20;;;;;;;1.52;1.38;;;;;;;;;;4205921;28;20057;-57
2023/05/08 03:31:40;;;;;;;1.52;1.52;;;;;;;;;;4205640;28;20047;-58
2023/05/08 03:34:01;;;;;;;1.65;1.65;;;;;;;;;;4205621;28;20051;-57
2023/05/08 03:36:23;;;;;;;1.73;1.73;;;;;;;;;;4205327;28;20055;-57
2023/05/08 03:38:44;;;;;;;1.83;1.83;;;;;;;;;;4205400;28;20362;-58
2023/05/08 03:41:04;;;;;;;1.85;1.58;;;;;;;;;;4205449;28;20490;-58
2023/05/08 03:43:25;;;;;;;1.77;1.77;;;;;;;;;;4204950;28;20052;-58
2023/05/08 03:45:45;;;;;;;1.90;1.80;;;;;;;;;;4205181;28;20055;-58
2023/05/08 03:48:06;;;;;;;1.70;1.70;;;;;;;;;;4204670;28;20047;-57
2023/05/08 03:50:27;;;;;;;1.75;1.75;;;;;;;;;;4205498;28;20051;-57
2023/05/08 03:52:47;;;;;;;2.05;1.83;;;;;;;;;;4205279;28;20078;-58
2023/05/08 03:55:08;;;;;;;1.88;1.77;;;;;;;;;;4204817;28;20063;-58
2023/05/08 03:57:32;;;;;;;1.60;1.50;;;;;;;;;;4204421;28;20052;-58
2023/05/08 04:00:05;;;;;;;1.63;1.52;;;;;;;;;;4204539;28;20074;-57
2023/05/08 04:02:29;;;;;;;1.73;1.73;;;;;;;;;;4203938;28;20064;-58
2023/05/08 04:04:52;;;;;;;1.95;1.92;;;;;;;;;;4203202;28;20315;-58
2023/05/08 04:07:22;;;;;;;2.63;2.53;;;;;;;;;;4205267;28;20048;-57
2023/05/08 04:09:58;;;;;;;1.60;1.60;;;;;;;;;;4204799;28;20400;-57
2023/05/08 04:12:20;;;;;;;2.15;2.05;;;;;;;;;;4203183;28;20078;-58
2023/05/08 04:14:44;;;;;;;1.70;1.60;;;;;;;;;;4205224;28;20043;-58
2023/05/08 04:17:07;;;;;;;2.35;2.25;;;;;;;;;;4204576;28;20047;-57
2023/05/08 04:19:29;;;;;;;1.98;1.88;;;;;;;;;;4205023;28;20086;-58
2023/05/08 04:21:50;;;;;;;1.92;1.83;;;;;;;;;;4203874;28;20090;-58
2023/05/08 04:24:12;;;;;;;1.65;1.65;;;;;;;;;;4208192;28;20079;-58
2023/05/08 04:26:33;;;;;;;1.80;1.80;;;;;;;;;;4210484;28;20232;-58
2023/05/08 04:28:53;;;;;;;2.17;2.17;;;;;;;;;;4210353;28;20063;-58
2023/05/08 04:31:15;;;;;;;1.67;1.58;;;;;;;;;;4210558;28;20086;-58
2023/05/08 04:33:36;;;;;;;1.92;1.50;;;;;;;;;;4209071;28;20236;-58
2023/05/08 04:35:57;;;;;;;1.42;1.42;;;;;;;;;;4210287;28;20052;-57
2023/05/08 04:38:17;;;;;;;2.00;2.00;;;;;;;;;;4210381;28;20119;-58
2023/05/08 04:40:37;;;;;;;1.90;1.77;;;;;;;;;;4208947;28;20370;-58
2023/05/08 04:42:58;;;;;;;2.55;2.45;;;;;;;;;;4210306;28;20051;-58
2023/05/08 04:45:18;;;;;;;2.47;2.17;;;;;;;;;;4209907;28;20292;-58
2023/05/08 04:47:38;;;;;;;2.33;2.22;;;;;;;;;;4210536;28;20396;-57
2023/05/08 04:49:59;;;;;;;2.28;2.28;;;;;;;;;;4210419;28;20079;-58
2023/05/08 04:52:22;;;;;;;2.05;1.98;;;;;;;;;;4208878;28;20104;-58
2023/05/08 04:54:42;;;;;;;2.30;2.30;;;;;;;;;;4209836;28;20043;-58
2023/05/08 04:57:02;;;;;;;2.50;2.50;;;;;;;;;;4210190;28;20051;-58
2023/05/08 04:59:25;;;;;;;2.42;2.33;;;;;;;;;;4210160;28;20051;-58
2023/05/08 05:01:46;;;;;;;2.55;2.45;;;;;;;;;;4209212;28;20071;-58
2023/05/08 05:04:07;;;;;;;3.15;2.92;;;;;;;;;;4209740;28;20054;-58
2023/05/08 05:06:27;;;;;;;2.55;2.45;;;;;;;;;;4210063;28;20090;-58
2023/05/08 05:08:47;;;;;;;2.65;2.50;;;;;;;;;;4209810;28;20047;-58
2023/05/08 05:11:07;;;;;;;1.80;1.70;;;;;;;;;;4210148;28;20067;-58
2023/05/08 05:13:28;;;;;;;1.77;1.77;;;;;;;;;;4209923;28;20048;-57
2023/05/08 05:15:50;;;;;;;2.25;1.88;;;;;;;;;;4209308;28;20082;-58
2023/05/08 05:18:10;;;;;;;1.57;1.57;;;;;;;;;;4209436;28;20090;-59
2023/05/08 05:20:30;;;;;;;1.80;1.70;;;;;;;;;;4209709;28;20282;-57
2023/05/08 05:22:50;;;;;;;2.13;2.13;;;;;;;;;;4209112;28;20071;-58
2023/05/08 05:25:11;;;;;;;1.60;1.50;;;;;;;;;;4207966;28;20099;-58
2023/05/08 05:27:34;;;;;;;2.15;2.03;;;;;;;;;;4209820;28;20266;-58
2023/05/08 05:29:54;;;;;;;1.85;1.83;;;;;;;;;;4208879;28;20047;-58
2023/05/08 05:32:14;;;;;;;2.17;2.05;;;;;;;;;;4208868;28;20055;-58
2023/05/08 05:34:35;;;;;;;2.45;1.80;;;;;;;;;;4206389;28;20416;-58
2023/05/08 05:36:55;;;;;;;1.60;1.60;;;;;;;;;;4207213;28;20299;-58
2023/05/08 05:39:15;;;;;;;1.88;1.88;;;;;;;;;;4206874;28;20048;-58
2023/05/08 05:41:36;;;;;;;2.28;2.28;;;;;;;;;;4205680;28;20390;-58
2023/05/08 05:43:56;;;;;;;1.80;1.70;;;;;;;;;;4207006;28;20055;-58
2023/05/08 05:46:17;;;;;;;2.53;2.33;;;;;;;;;;4206960;28;20321;-58
2023/05/08 05:48:37;;;;;;;2.25;2.00;;;;;;;;;;4206370;28;20236;-58
2023/05/08 05:50:57;;;;;;;2.13;2.13;;;;;;;;;;4207039;28;20108;-58
2023/05/08 05:53:17;;;;;;;2.20;2.20;;;;;;;;;;4206926;28;20341;-58
2023/05/08 05:55:38;;;;;;;2.50;2.50;;;;;;;;;;4207017;28;20151;-58
2023/05/08 05:57:58;;;;;;;2.60;2.40;;;;;;;;;;4206429;28;20067;-58
2023/05/08 06:00:20;;;;;;;2.30;2.03;;;;;;;;;;4205051;28;20139;-59
2023/05/08 06:02:43;;;;;;;2.28;2.22;;;;;;;;;;4206894;28;20336;-58
2023/05/08 06:05:04;;;;;;;2.10;2.10;;;;;;;;;;4206776;28;20106;-58
2023/05/08 06:07:24;;;;;;;2.45;2.30;;;;;;;;;;4206854;28;20059;-58
2023/05/08 06:09:44;;;;;;;1.42;1.42;;;;;;;;;;4205349;28;20086;-58
2023/05/08 06:12:05;;;;;;;2.10;2.00;;;;;;;;;;4205065;28;20051;-58
2023/05/08 06:14:25;;;;;;;2.15;2.05;;;;;;;;;;4206649;28;20055;-59
2023/05/08 06:16:45;;;;;;;2.95;2.75;;;;;;;;;;4206625;28;20379;-58
2023/05/08 06:19:07;;;;;;;2.50;2.25;;;;;;;;;;4204894;28;20048;-58
2023/05/08 06:21:27;;;;;;;2.28;2.15;;;;;;;;;;4206717;28;20047;-58
2023/05/08 06:23:47;;;;;;;1.98;1.90;;;;;;;;;;4206254;28;20054;-58
2023/05/08 06:26:08;;;;;;;1.80;1.80;;;;;;;;;;4206215;28;20051;-58
2023/05/08 06:28:28;;;;;;;2.03;1.90;;;;;;;;;;4206132;28;20101;-58
2023/05/08 06:30:48;;;;;;;2.72;2.53;;;;;;;;;;4206414;28;20270;-58
2023/05/08 06:33:10;;;;;;;1.88;1.77;;;;;;;;;;4205744;28;20079;-59
2023/05/08 06:35:30;;;;;;;2.00;1.77;;;;;;;;;;4206217;28;20112;-58
2023/05/08 06:37:50;;;;;;;1.50;1.50;;;;;;;;;;4205410;28;20047;-57
2023/05/08 06:40:11;;;;;;;1.67;1.67;;;;;;;;;;4205438;28;20059;-58
2023/05/08 06:42:32;;;;;;;1.70;1.70;;;;;;;;;;4205636;28;20086;-58
2023/05/08 06:44:52;;;;;;;2.17;2.08;;;;;;;;;;4204990;28;20082;-58
2023/05/08 06:47:12;;;;;;;1.70;1.60;;;;;;;;;;4204565;28;20555;-58
2023/05/08 06:49:32;;;;;;;1.33;1.33;;;;;;;;;;4206222;28;20090;-58
2023/05/08 06:51:53;;;;;;;1.20;1.20;;;;;;;;;;4205232;28;20094;-58
2023/05/08 06:54:17;;;;;;;1.20;1.20;;;;;;;;;;4206224;28;20043;-58
2023/05/08 06:56:38;;;;;;;1.20;1.20;;;;;;;;;;4206074;28;20051;-58
2023/05/08 06:58:58;;;;;;;1.50;1.50;;;;;;;;;;4205766;28;20077;-58
2023/05/08 07:01:28;;;;;;;4.07;1.40;;;;;;;;;;4205736;28;20363;-57
2023/05/08 07:03:48;;;;;;;1.30;1.30;;;;;;;;;;4205926;28;20063;-58
2023/05/08 07:06:09;;;;;;;1.40;1.40;;;;;;;;;;4205434;28;20236;-58
2023/05/08 07:08:31;;;;;;;1.73;1.27;;;;;;;;;;4205754;28;20055;-58
2023/05/08 07:10:52;;;;;;;1.30;1.30;;;;;;;;;;4205408;28;20064;-58
2023/05/08 07:13:12;;;;;;;3.03;1.60;;;;;;;;;;4205498;28;20109;-58
2023/05/08 07:15:32;;;;;;;1.10;1.10;;;;;;;;;;4205456;28;20117;-58
2023/05/08 07:17:52;;;;;;;1.63;1.20;;;;;;;;;;4205781;28;20107;-58
2023/05/08 07:20:13;;;;;;;1.23;1.20;;;;;;;;;;4205592;28;20047;-57
2023/05/08 07:22:33;;;;;;;1.10;1.10;;;;;;;;;;4205140;28;20048;-58
2023/05/08 07:24:53;;;;;;;1.40;1.27;;;;;;;;;;4205010;28;20055;-58
2023/05/08 07:27:13;;;;;;;1.20;1.20;;;;;;;;;;4204992;28;20117;-58
2023/05/08 07:29:39;;;;;;;2.03;0.90;;;;;;;;;;4205252;28;20044;-58
2023/05/08 07:32:00;;;;;;;1.10;1.00;;;;;;;;;;4205685;28;20051;-58
2023/05/08 07:34:21;;;;;;;1.35;1.15;;;;;;;;;;4205509;28;20086;-58
2023/05/08 07:36:41;;;;;;;1.38;1.38;;;;;;;;;;4205440;28;20082;-58
2023/05/08 07:39:01;;;;;;;1.33;1.10;;;;;;;;;;4205481;28;20114;-58
2023/05/08 07:41:21;;;;;;;2.15;1.10;;;;;;;;;;4205467;28;20089;-58
2023/05/08 07:43:43;;;;;;;1.95;1.13;;;;;;;;;;4205215;28;20244;-58
2023/05/08 07:46:04;;;;;;;3.42;1.10;;;;;;;;;;4205456;28;20086;-58
2023/05/08 07:48:25;;;;;;;1.20;1.20;;;;;;;;;;4205416;28;20078;-58
2023/05/08 07:50:45;;;;;;;1.00;1.00;;;;;;;;;;4205279;28;20293;-58
2023/05/08 07:53:05;;;;;;;2.47;0.95;;;;;;;;;;4205305;28;20338;-58
2023/05/08 07:55:26;;;;;;;0.98;0.95;;;;;;;;;;4205279;28;20038;-58
2023/05/08 07:57:46;;;;;;;1.02;0.90;;;;;;;;;;4204532;28;20047;-58
2023/05/08 08:00:07;;;;;;;1.20;1.10;;;;;;;;;;4205344;28;20334;-58
2023/05/08 08:02:27;;;;;;;1.27;0.90;;;;;;;;;;4205277;28;20044;-58
2023/05/08 08:04:48;;;;;;;1.02;1.00;;;;;;;;;;4205293;28;20063;-58
2023/05/08 08:07:08;;;;;;;1.50;1.00;;;;;;;;;;4204887;28;20047;-58
2023/05/08 08:09:28;;;;;;;0.98;0.98;;;;;;;;;;4205245;28;20051;-58
2023/05/08 08:11:48;;;;;;;2.88;0.93;;;;;;;;;;4204628;28;20091;-58
2023/05/08 08:14:09;;;;;;;1.85;1.00;;;;;;;;;;4205069;28;20039;-59
2023/05/08 08:16:29;;;;;;;1.05;0.95;;;;;;;;;;4205164;28;20051;-58
2023/05/08 08:18:52;;;;;;;0.90;0.90;;;;;;;;;;4204926;28;20104;-59
2023/05/08 08:21:13;;;;;;;0.90;0.90;;;;;;;;;;4204862;28;20062;-58
2023/05/08 08:23:33;;;;;;;0.90;0.90;;;;;;;;;;4204971;28;20043;-59
2023/05/08 08:25:54;;;;;;;1.33;1.23;;;;;;;;;;4204609;28;20042;-58
2023/05/08 08:28:14;;;;;;;1.48;0.80;;;;;;;;;;4204963;28;20050;-58
2023/05/08 08:30:34;;;;;;;0.77;0.77;;;;;;;;;;4204430;28;20079;-58
2023/05/08 08:32:54;;;;;;;1.00;0.90;;;;;;;;;;4204622;28;20078;-58
2023/05/08 08:35:15;;;;;;;0.80;0.80;;;;;;;;;;4204609;28;20567;-59
2023/05/08 08:37:37;;;;;;;0.80;0.80;;;;;;;;;;4204409;28;20050;-59
2023/05/08 08:39:57;;;;;;;1.30;0.80;;;;;;;;;;4204542;28;20040;-58
2023/05/08 08:42:17;;;;;;;0.80;0.80;;;;;;;;;;4204353;28;20055;-58
2023/05/08 08:44:37;;;;;;;1.40;0.70;;;;;;;;;;4204192;28;20089;-58
2023/05/08 08:47:00;;;;;;;1.65;0.80;;;;;;;;;;4204699;28;20147;-59
2023/05/08 08:49:26;;;;;;;0.80;0.80;;;;;;;;;;4204341;28;20052;-58
2023/05/08 08:51:50;;;;;;;0.80;0.80;;;;;;;;;;4203828;28;20385;-59
2023/05/08 08:54:12;;;;;;;1.27;0.80;;;;;;;;;;4204765;28;20051;-58
2023/05/08 08:56:33;;;;;;;1.00;0.70;;;;;;;;;;4203383;28;20150;-58
2023/05/08 08:58:58;;;;;;;0.80;0.80;;;;;;;;;;4204038;28;20252;-59
2023/05/08 09:01:18;;;;;;;0.75;0.75;;;;;;;;;;4204405;28;20232;-58
2023/05/08 09:03:39;;;;;;;2.95;0.80;;;;;;;;;;4204374;28;20043;-59
2023/05/08 09:06:03;;;;;;;1.20;0.90;;;;;;;;;;4204568;28;20050;-59
2023/05/08 09:08:24;;;;;;;0.70;0.70;;;;;;;;;;4204477;28;20039;-59
2023/05/08 09:10:43;;;;;;;1.88;1.00;;;;;;;;;;4206363;28;20083;-58
2023/05/08 09:13:04;;;;;;;0.75;0.75;;;;;;;;;;4207458;28;20116;-59
2023/05/08 09:15:24;;;;;;;1.80;0.70;;;;;;;;;;4207215;28;20409;-58
2023/05/08 09:17:44;;;;;;;1.02;0.70;;;;;;;;;;4206667;28;20085;-59
2023/05/08 09:20:05;;;;;;;0.85;0.80;;;;;;;;;;4206592;28;20044;-58
2023/05/08 09:22:26;;;;;;;2.15;0.88;;;;;;;;;;4206951;28;20052;-59
2023/05/08 09:24:57;;;;;;;1.55;0.70;;;;;;;;;;4206641;28;20048;-59
2023/05/08 09:27:21;;;;;;;2.05;0.80;;;;;;;;;;4206199;28;20047;-59
2023/05/08 09:29:57;;;;;;;2.13;0.90;;;;;;;;;;4207368;28;20043;-58
2023/05/08 09:32:18;;;;;;;2.30;0.82;;;;;;;;;;4207072;28;20063;-58
2023/05/08 09:34:38;;;;;;;2.78;0.90;;;;;;;;;;4206178;28;20371;-59
2023/05/08 09:37:05;;;;;;;1.70;0.90;;;;;;;;;;4190357;28;20392;-59
2023/05/08 09:39:25;;;;;;;0.90;0.90;;;;;;;;;;4206751;28;20370;-59
2023/05/08 09:42:04;;;;;;;0.85;0.85;;;;;;;;;;4206029;28;20068;-59
2023/05/08 09:44:25;;;;;;;2.08;1.35;;;;;;;;;;4206525;28;20044;-58
2023/05/08 09:46:48;;;;;;;1.10;0.98;;;;;;;;;;4205279;28;20048;-59
2023/05/08 09:49:16;;;;;;;1.30;1.20;;;;;;;;;;4207055;28;20127;-59
2023/05/08 09:51:35;;;;;;;1.00;1.00;;;;;;;;;;4206919;28;20089;-58
2023/05/08 09:54:02;;;;;;;0.80;0.80;;;;;;;;;;4206965;28;20051;-58
2023/05/08 09:56:30;;;;;;;1.00;1.00;;;;;;;;;;4206265;28;20294;-59
2023/05/08 09:58:50;;;;;;;1.30;1.30;;;;;;;;;;4206855;28;20154;-58
2023/05/08 10:01:27;;;;;;;1.13;1.02;;;;;;;;;;4206555;28;20075;-58
2023/05/08 10:03:50;;;;;;;1.30;1.13;;;;;;;;;;4205353;28;20056;-59
2023/05/08 10:06:14;;;;;;;1.35;1.25;;;;;;;;;;4205644;28;20472;-57
2023/05/08 10:08:34;;;;;;;1.13;1.02;;;;;;;;;;4206109;28;20067;-59
2023/05/08 10:11:12;;;;;;;1.20;1.20;;;;;;;;;;4206627;28;20047;-59
2023/05/08 10:13:32;;;;;;;1.05;1.05;;;;;;;;;;4202412;28;20070;-59
2023/05/08 10:15:54;;;;;;;1.15;1.15;;;;;;;;;;4206363;28;20047;-58
2023/05/08 10:18:15;;;;;;;1.55;1.40;;;;;;;;;;4205912;28;20355;-59
2023/05/08 10:20:39;;;;;;;1.10;1.10;;;;;;;;;;4206511;28;20070;-59
2023/05/08 10:23:00;;;;;;;1.30;1.30;;;;;;;;;;4204975;28;20060;-59
2023/05/08 10:25:21;;;;;;;1.20;1.20;;;;;;;;;;4206573;28;20401;-58
2023/05/08 10:27:47;;;;;;;1.20;1.20;;;;;;;;;;4206464;28;20126;-59
2023/05/08 10:30:09;;;;;;;1.20;1.20;;;;;;;;;;4205729;28;20052;-59
2023/05/08 10:32:32;;;;;;;2.13;1.50;;;;;;;;;;4206404;28;20160;-58
2023/05/08 10:34:53;;;;;;;1.88;1.42;;;;;;;;;;4205964;28;20039;-59
2023/05/08 10:37:13;;;;;;;1.40;1.40;;;;;;;;;;4206336;28;20086;-58
2023/05/08 10:39:34;;;;;;;1.83;1.73;;;;;;;;;;4205887;28;20086;-59
2023/05/08 10:41:54;;;;;;;1.60;1.60;;;;;;;;;;4206063;28;20123;-59
2023/05/08 10:44:15;;;;;;;1.35;1.35;;;;;;;;;;4206193;28;20119;-58
2023/05/08 10:46:54;;;;;;;2.00;1.90;;;;;;;;;;4205787;28;20048;-58
2023/05/08 10:49:22;;;;;;;1.45;1.35;;;;;;;;;;4205619;28;20043;-58
2023/05/08 10:52:09;;;;;;;1.52;1.52;;;;;;;;;;4205396;28;20083;-58
2023/05/08 10:54:50;;;;;;;1.65;1.65;;;;;;;;;;4206119;28;20044;-59
2023/05/08 10:57:11;;;;;;;1.70;1.70;;;;;;;;;;4204986;28;20063;-59
2023/05/08 10:59:34;;;;;;;1.63;1.63;;;;;;;;;;4206093;28;20059;-59
2023/05/08 11:02:03;;;;;;;1.35;1.35;;;;;;;;;;4205789;28;20416;-59
2023/05/08 11:04:23;;;;;;;1.48;1.40;;;;;;;;;;4205736;28;20071;-59
2023/05/08 11:06:45;;;;;;;1.40;1.40;;;;;;;;;;4205979;28;20119;-59
2023/05/08 11:09:05;;;;;;;1.60;1.50;;;;;;;;;;4205822;28;20078;-59
2023/05/08 11:11:25;;;;;;;1.45;1.40;;;;;;;;;;4205771;28;20110;-59
2023/05/08 11:13:54;;;;;;;2.65;2.33;;;;;;;;;;4205429;28;20043;-58
2023/05/08 11:16:14;;;;;;;1.63;1.60;;;;;;;;;;4204689;28;20236;-59
2023/05/08 11:18:35;;;;;;;2.17;1.60;;;;;;;;;;4198636;28;20043;-58
2023/05/08 11:21:14;;;;;;;2.33;2.22;;;;;;;;;;4205538;28;20054;-59
2023/05/08 11:23:36;;;;;;;1.70;1.70;;;;;;;;;;4205259;28;20051;-58
2023/05/08 11:26:05;;;;;;;2.22;2.15;;;;;;;;;;4205801;28;20590;-59
2023/05/08 11:28:26;;;;;;;1.30;1.30;;;;;;;;;;4205753;28;20298;-58
2023/05/08 11:30:46;;;;;;;1.58;1.48;;;;;;;;;;4205420;28;20058;-59
2023/05/08 11:33:10;;;;;;;1.88;1.40;;;;;;;;;;4204173;28;20051;-58
2023/05/08 11:35:42;;;;;;;1.45;1.45;;;;;;;;;;4205565;28;20035;-58
2023/05/08 11:38:17;;;;;;;1.20;1.20;;;;;;;;;;4204459;28;20051;-58
2023/05/08 11:40:45;;;;;;;1.35;1.35;;;;;;;;;;4205145;28;20043;-59
2023/05/08 11:43:19;;;;;;;1.63;1.42;;;;;;;;;;4205118;28;20329;-58
2023/05/08 11:45:40;;;;;;;1.40;1.35;;;;;;;;;;4204744;28;20043;-58
2023/05/08 11:48:00;;;;;;;1.20;1.20;;;;;;;;;;4204815;28;20071;-57
2023/05/08 11:50:20;;;;;;;1.27;1.27;;;;;;;;;;4205358;28;20086;-58
2023/05/08 11:52:42;;;;;;;1.33;1.23;;;;;;;;;;4204622;28;20043;-58
2023/05/08 11:55:07;;;;;;;1.53;1.20;;;;;;;;;;4205302;28;20062;-58
2023/05/08 11:57:26;;;;;;;1.77;1.10;;;;;;;;;;4205158;28;20070;-58
2023/05/08 11:59:50;;;;;;;1.25;1.25;;;;;;;;;;4204972;28;20127;-58
2023/05/08 12:02:11;;;;;;;1.23;1.13;;;;;;;;;;4204875;28;20087;-58
2023/05/08 12:04:31;;;;;;;1.52;1.52;;;;;;;;;;4203695;28;20047;-58
2023/05/08 12:06:56;;;;;;;2.00;1.50;;;;;;;;;;4204716;28;20064;-58
2023/05/08 12:09:19;;;;;;;1.33;1.33;;;;;;;;;;4197897;28;20124;-58
2023/05/08 12:11:42;;;;;;;1.67;1.58;;;;;;;;;;4205334;28;20051;-58
2023/05/08 12:14:03;;;;;;;1.42;1.20;;;;;;;;;;4204912;28;20067;-58
2023/05/08 12:16:24;;;;;;;2.95;1.55;;;;;;;;;;4205155;28;20043;-58
2023/05/08 12:18:45;;;;;;;1.10;1.10;;;;;;;;;;4204643;28;20055;-58
2023/05/08 12:21:05;;;;;;;1.55;1.45;;;;;;;;;;4205115;28;20351;-57
2023/05/08 12:23:26;;;;;;;1.75;1.65;;;;;;;;;;4205082;28;20410;-58
2023/05/08 12:25:46;;;;;;;1.92;1.55;;;;;;;;;;4204962;28;20078;-58
2023/05/08 12:28:06;;;;;;;2.40;1.20;;;;;;;;;;4189794;28;20127;-58
2023/05/08 12:30:26;;;;;;;1.60;1.10;;;;;;;;;;4208435;28;20075;-58
2023/05/08 12:32:46;;;;;;;1.48;1.45;;;;;;;;;;4203867;28;20078;-58
2023/05/08 12:35:07;;;;;;;1.10;1.10;;;;;;;;;;4204370;28;20155;-58
2023/05/08 12:37:28;;;;;;;1.52;1.42;;;;;;;;;;4203235;28;20047;-58
2023/05/08 12:39:48;;;;;;;1.40;1.40;;;;;;;;;;4204636;28;20046;-58
2023/05/08 12:42:09;;;;;;;1.33;1.23;;;;;;;;;;4203671;28;20079;-58
2023/05/08 12:44:29;;;;;;;1.52;1.10;;;;;;;;;;4205078;28;20059;-59
2023/05/08 12:46:50;;;;;;;1.50;1.40;;;;;;;;;;4207764;28;20047;-58
2023/05/08 12:49:11;;;;;;;1.50;1.30;;;;;;;;;;4207336;28;20051;-58
2023/05/08 12:51:32;;;;;;;1.00;1.00;;;;;;;;;;4207535;28;20059;-58
2023/05/08 12:53:52;;;;;;;1.10;1.10;;;;;;;;;;4207259;28;20066;-57
2023/05/08 12:56:14;;;;;;;1.00;1.00;;;;;;;;;;4205986;28;20048;-57
2023/05/08 12:58:35;;;;;;;2.45;1.17;;;;;;;;;;4207225;28;20098;-57
2023/05/08 13:01:04;;;;;;;6.00;1.10;;;;;;;;;;4207132;28;20044;-57
2023/05/08 13:03:25;;;;;;;1.65;1.05;;;;;;;;;;4207449;28;20240;-57
2023/05/08 13:05:46;;;;;;;2.60;1.02;;;;;;;;;;4206490;28;20062;-57
2023/05/08 13:08:10;;;;;;;1.00;1.00;;;;;;;;;;4207598;28;20067;-57
2023/05/08 13:10:47;;;;;;;0.95;0.95;;;;;;;;;;4206533;28;20039;-57
2023/05/08 13:13:07;;;;;;;2.28;1.00;;;;;;;;;;4207175;28;20101;-57
2023/05/08 13:15:27;;;;;;;0.90;0.90;;;;;;;;;;4207434;28;20052;-58
2023/05/08 13:17:48;;;;;;;1.00;1.00;;;;;;;;;;4207131;28;20082;-57
2023/05/08 13:20:08;;;;;;;1.27;1.20;;;;;;;;;;4206663;28;20091;-58
2023/05/08 13:22:29;;;;;;;1.40;1.40;;;;;;;;;;4206642;28;20073;-57
2023/05/08 13:24:50;;;;;;;1.10;1.10;;;;;;;;;;4207342;28;20051;-57
2023/05/08 13:27:10;;;;;;;2.10;1.00;;;;;;;;;;4206650;28;20059;-57
2023/05/08 13:29:30;;;;;;;1.17;1.08;;;;;;;;;;4206015;28;20386;-57
2023/05/08 13:31:50;;;;;;;1.20;1.20;;;;;;;;;;4207287;28;20274;-57
2023/05/08 13:34:10;;;;;;;2.25;1.10;;;;;;;;;;4207047;28;20082;-57
2023/05/08 13:36:30;;;;;;;1.88;1.17;;;;;;;;;;4205842;28;20121;-57
2023/05/08 13:38:53;;;;;;;1.33;1.33;;;;;;;;;;4206771;28;20163;-57
2023/05/08 13:41:13;;;;;;;1.40;1.40;;;;;;;;;;4205688;28;20358;-56
2023/05/08 13:43:35;;;;;;;1.20;1.20;;;;;;;;;;4206590;28;20382;-57
2023/05/08 13:45:56;;;;;;;1.70;1.20;;;;;;;;;;4205895;28;20369;-57
2023/05/08 13:48:16;;;;;;;2.35;1.20;;;;;;;;;;4206130;28;20086;-56
2023/05/08 13:50:36;;;;;;;1.35;1.35;;;;;;;;;;4204841;28;20055;-57
2023/05/08 13:52:56;;;;;;;1.80;1.67;;;;;;;;;;4206356;28;20082;-56
2023/05/08 13:55:19;;;;;;;1.13;1.13;;;;;;;;;;4189335;28;20048;-56
2023/05/08 13:57:40;;;;;;;1.20;1.20;;;;;;;;;;4204907;28;20106;-57
2023/05/08 14:00:00;;;;;;;1.23;1.23;;;;;;;;;;4204275;28;20421;-57
2023/05/08 14:02:20;;;;;;;2.35;1.60;;;;;;;;;;4206477;28;20048;-56
2023/05/08 14:04:41;;;;;;;2.53;1.70;;;;;;;;;;4205034;28;20048;-57
2023/05/08 14:07:01;;;;;;;2.45;1.45;;;;;;;;;;4203806;28;20109;-57
2023/05/08 14:09:22;;;;;;;1.25;1.25;;;;;;;;;;4206842;28;20055;-58
2023/05/08 14:11:42;;;;;;;1.83;1.75;;;;;;;;;;4205539;28;20240;-57
2023/05/08 14:14:02;;;;;;;2.55;1.40;;;;;;;;;;4206760;28;20047;-57